Time;durP1;ratioP1;P1;durP2;ratioP2;P2;SDS_P1;SDS_P2;PMS_P1;PMS_P2;Temp;Humidity;BMP_temperature;BMP_pressure;BME280_temperature;BME280_humidity;BME280_pressure;Samples;Min_cycle;Max_cycle;Signal;HPM_P1;HPM_P2
2024/01/27 00:01:37;;;;;;;17.90;8.75;;;;;;;0.79;100.00;103316.78;5045215;28;20203;-75
2024/01/27 00:04:02;;;;;;;18.05;8.70;;;;;;;0.77;100.00;103316.75;5044589;28;20025;-75
2024/01/27 00:06:28;;;;;;;17.42;8.77;;;;;;;0.74;100.00;103314.91;5062946;28;20549;-75
2024/01/27 00:08:53;;;;;;;23.38;9.30;;;;;;;0.64;100.00;103299.78;5060626;28;20390;-75
2024/01/27 00:11:19;;;;;;;19.13;9.30;;;;;;;0.66;100.00;103308.56;5056864;28;20589;-74
2024/01/27 00:13:47;;;;;;;17.98;9.32;;;;;;;0.64;100.00;103301.53;5052211;28;20476;-75
2024/01/27 00:16:12;;;;;;;16.17;8.43;;;;;;;0.61;100.00;103299.69;5051601;28;20033;-75
2024/01/27 00:18:38;;;;;;;17.73;8.85;;;;;;;0.61;100.00;103304.94;5051829;28;20028;-75
2024/01/27 00:21:05;;;;;;;21.17;9.18;;;;;;;0.50;100.00;103288.00;5042822;28;20059;-75
2024/01/27 00:23:32;;;;;;;18.05;9.30;;;;;;;0.55;100.00;103304.75;5040957;28;20025;-75
2024/01/27 00:25:57;;;;;;;19.67;9.15;;;;;;;0.59;100.00;103295.25;5043211;28;20037;-75
2024/01/27 00:28:23;;;;;;;21.30;9.18;;;;;;;0.63;100.00;103303.25;5036755;28;20434;-75
2024/01/27 00:30:48;;;;;;;24.95;9.18;;;;;;;0.66;100.00;103302.44;5042669;28;20170;-75
2024/01/27 00:33:13;;;;;;;20.70;9.60;;;;;;;0.62;100.00;103305.81;5040987;28;20024;-74
2024/01/27 00:35:39;;;;;;;18.98;8.60;;;;;;;0.66;100.00;103318.16;5044799;28;20031;-75
2024/01/27 00:38:04;;;;;;;19.70;8.43;;;;;;;0.58;100.00;103317.94;5026075;28;20021;-76
2024/01/27 00:40:29;;;;;;;22.08;9.05;;;;;;;0.63;100.00;103323.34;5041755;28;20032;-74
2024/01/27 00:42:55;;;;;;;19.25;9.23;;;;;;;0.59;100.00;103324.09;5043567;28;20554;-75
2024/01/27 00:45:22;;;;;;;17.20;9.50;;;;;;;0.54;100.00;103320.41;5044313;28;20017;-76
2024/01/27 00:47:49;;;;;;;18.52;9.32;;;;;;;0.53;100.00;103330.00;5041864;28;20033;-74
2024/01/27 00:50:15;;;;;;;25.10;9.52;;;;;;;0.49;100.00;103333.38;5039532;28;20025;-75
2024/01/27 00:52:40;;;;;;;24.13;10.13;;;;;;;0.34;100.00;103315.47;5041052;28;20036;-74
2024/01/27 00:55:06;;;;;;;19.55;9.70;;;;;;;0.41;100.00;103334.88;5042022;28;20498;-74
2024/01/27 00:57:31;;;;;;;17.60;9.38;;;;;;;0.34;100.00;103339.06;5042147;28;20516;-75
2024/01/27 00:59:57;;;;;;;25.45;10.73;;;;;;;0.31;100.00;103332.81;5028760;28;20546;-75
2024/01/27 01:02:22;;;;;;;23.48;10.50;;;;;;;0.36;100.00;103332.13;5026384;28;20037;-74
2024/01/27 01:04:48;;;;;;;21.02;9.63;;;;;;;0.31;100.00;103333.72;5040756;28;20577;-75
2024/01/27 01:07:13;;;;;;;16.60;9.80;;;;;;;0.22;100.00;103323.84;5040756;28;20047;-75
2024/01/27 01:09:38;;;;;;;20.85;9.68;;;;;;;0.21;100.00;103331.66;5027185;28;20047;-75
2024/01/27 01:12:04;;;;;;;19.67;9.88;;;;;;;0.20;100.00;103330.75;5041747;28;20412;-75
2024/01/27 01:14:30;;;;;;;24.25;9.63;;;;;;;0.10;100.00;103327.81;5041612;28;20471;-76
2024/01/27 01:16:55;;;;;;;19.50;10.32;;;;;;;0.11;100.00;103334.81;5045417;28;20036;-76
2024/01/27 01:19:20;;;;;;;21.27;9.95;;;;;;;0.09;100.00;103336.50;5033344;28;20029;-74
2024/01/27 01:21:46;;;;;;;20.67;10.05;;;;;;;0.10;100.00;103335.66;5038216;28;20056;-74
2024/01/27 01:24:12;;;;;;;19.38;9.27;;;;;;;0.08;100.00;103342.56;5046522;28;20041;-75
2024/01/27 01:26:37;;;;;;;18.65;9.48;;;;;;;0.09;100.00;103336.50;5050280;28;20029;-75
2024/01/27 01:29:02;;;;;;;20.55;10.30;;;;;;;0.04;100.00;103332.81;5041696;28;20502;-75
2024/01/27 01:31:28;;;;;;;18.73;10.10;;;;;;;0.07;100.00;103340.78;5044597;28;20079;-75
2024/01/27 01:33:53;;;;;;;23.55;9.60;;;;;;;0.05;100.00;103322.41;5048807;28;20035;-75
2024/01/27 01:36:19;;;;;;;21.20;10.23;;;;;;;0.06;100.00;103331.16;5041883;28;20447;-75
2024/01/27 01:38:44;;;;;;;16.88;9.85;;;;;;;0.01;100.00;103306.56;5014942;28;20064;-75
2024/01/27 01:41:10;;;;;;;22.10;10.15;;;;;;;0.04;100.00;103327.59;5042501;28;20128;-75
2024/01/27 01:43:35;;;;;;;20.63;10.15;;;;;;;0.09;100.00;103332.16;5046691;28;20036;-75
2024/01/27 01:46:01;;;;;;;21.38;9.70;;;;;;;0.01;100.00;103317.91;5046320;28;20563;-75
2024/01/27 01:48:26;;;;;;;16.92;9.85;;;;;;;0.06;100.00;103328.53;5045451;28;20131;-75
2024/01/27 01:50:51;;;;;;;24.58;10.40;;;;;;;-0.02;100.00;103329.16;5040759;28;20415;-74
2024/01/27 01:53:18;;;;;;;19.50;9.82;;;;;;;0.10;100.00;103340.88;5052084;28;20031;-74
2024/01/27 01:55:43;;;;;;;23.30;10.60;;;;;;;0.06;100.00;103339.91;5041349;28;20119;-74
2024/01/27 01:58:09;;;;;;;21.42;10.25;;;;;;;-0.02;100.00;103334.41;5039734;28;20135;-74
2024/01/27 02:00:34;;;;;;;22.50;10.57;;;;;;;0.01;100.00;103328.41;5048101;28;20096;-74
2024/01/27 02:02:59;;;;;;;25.40;10.27;;;;;;;0.03;100.00;103352.00;5042922;28;20037;-75
2024/01/27 02:05:25;;;;;;;23.70;10.52;;;;;;;0.06;100.00;103341.63;5040750;28;20079;-75
2024/01/27 02:07:50;;;;;;;20.25;10.95;;;;;;;0.02;100.00;103345.88;5045311;28;20122;-75
2024/01/27 02:10:17;;;;;;;19.17;11.15;;;;;;;-0.04;100.00;103329.97;5042091;28;20442;-75
2024/01/27 02:12:44;;;;;;;21.52;10.02;;;;;;;-0.02;100.00;103346.63;5045037;28;20028;-74
2024/01/27 02:15:11;;;;;;;27.95;11.23;;;;;;;-0.01;100.00;103345.75;5045804;28;20170;-75
2024/01/27 02:17:37;;;;;;;25.95;10.63;;;;;;;-0.03;100.00;103343.09;5029107;28;20577;-75
2024/01/27 02:20:03;;;;;;;27.60;10.95;;;;;;;0.00;100.00;103350.19;5044421;28;20087;-75
2024/01/27 02:22:28;;;;;;;16.13;9.95;;;;;;;-0.05;100.00;103352.63;5026568;28;20063;-75
2024/01/27 02:24:53;;;;;;;24.42;10.38;;;;;;;-0.07;100.00;103345.56;5026872;28;20079;-75
2024/01/27 02:27:18;;;;;;;22.45;10.57;;;;;;;-0.08;100.00;103349.94;5048163;28;20087;-75
2024/01/27 02:29:44;;;;;;;19.95;10.43;;;;;;;-0.07;100.00;103353.44;5048581;28;20075;-74
2024/01/27 02:32:09;;;;;;;18.45;10.05;;;;;;;-0.09;100.00;103349.84;5050940;28;20035;-74
2024/01/27 02:34:34;;;;;;;22.48;11.00;;;;;;;-0.09;100.00;103350.75;5048256;28;20327;-74
2024/01/27 02:37:00;;;;;;;24.17;10.75;;;;;;;-0.10;100.00;103348.09;5044519;28;20029;-74
2024/01/27 02:39:25;;;;;;;18.73;9.82;;;;;;;-0.16;100.00;103355.75;5044452;28;20277;-74
2024/01/27 02:41:51;;;;;;;20.05;9.90;;;;;;;-0.23;100.00;103348.53;5044390;28;20159;-75
2024/01/27 02:44:16;;;;;;;19.25;10.02;;;;;;;-0.19;100.00;103346.06;5047918;28;20036;-74
2024/01/27 02:46:43;;;;;;;26.80;11.48;;;;;;;-0.19;100.00;103347.78;5049276;28;20060;-75
2024/01/27 02:49:09;;;;;;;18.25;10.10;;;;;;;-0.20;100.00;103349.53;5045691;28;20037;-74
2024/01/27 02:51:34;;;;;;;23.67;10.80;;;;;;;-0.16;100.00;103340.94;5023695;28;20030;-75
2024/01/27 02:53:59;;;;;;;21.88;10.70;;;;;;;-0.20;100.00;103330.31;5044313;28;20107;-74
2024/01/27 02:56:25;;;;;;;20.58;10.60;;;;;;;-0.23;100.00;103349.41;5044389;28;20025;-75
2024/01/27 02:58:50;;;;;;;22.35;10.82;;;;;;;-0.21;100.00;103355.56;5040834;28;20105;-75
2024/01/27 03:01:15;;;;;;;21.38;11.13;;;;;;;-0.20;100.00;103353.88;5043570;28;20545;-75
2024/01/27 03:03:41;;;;;;;18.08;10.43;;;;;;;-0.23;100.00;103341.56;5044694;28;20044;-75
2024/01/27 03:06:06;;;;;;;19.17;10.05;;;;;;;-0.32;100.00;103344.75;5025939;28;20033;-75
2024/01/27 03:08:31;;;;;;;19.90;10.13;;;;;;;-0.24;100.00;103352.88;5040626;28;20029;-75
2024/01/27 03:10:57;;;;;;;24.27;10.30;;;;;;;-0.26;100.00;103349.28;5046920;28;20163;-75
2024/01/27 03:13:22;;;;;;;20.55;10.15;;;;;;;-0.27;100.00;103343.19;5043310;28;20418;-75
2024/01/27 03:15:49;;;;;;;26.65;9.98;;;;;;;-0.28;100.00;103346.63;5049789;28;20272;-75
2024/01/27 03:18:14;;;;;;;22.65;9.95;;;;;;;-0.31;100.00;103345.63;5044385;28;20036;-75
2024/01/27 03:20:39;;;;;;;20.70;9.73;;;;;;;-0.26;100.00;103349.28;5043837;28;20021;-75
2024/01/27 03:23:05;;;;;;;19.08;9.85;;;;;;;-0.30;100.00;103350.03;5028260;28;20028;-75
2024/01/27 03:25:30;;;;;;;23.15;9.90;;;;;;;-0.29;100.00;103359.69;5044299;28;20519;-74
2024/01/27 03:27:56;;;;;;;21.30;10.15;;;;;;;-0.34;100.00;103354.25;5045230;28;20052;-75
2024/01/27 03:30:21;;;;;;;20.90;9.95;;;;;;;-0.33;100.00;103358.69;5046230;28;21183;-75
2024/01/27 03:32:46;;;;;;;19.15;9.68;;;;;;;-0.40;100.00;103338.38;5044745;28;20190;-75
2024/01/27 03:35:12;;;;;;;21.88;10.10;;;;;;;-0.33;100.00;103352.56;5056751;28;20086;-72
2024/01/27 03:37:37;;;;;;;17.85;10.40;;;;;;;-0.37;100.00;103346.34;5043141;28;20035;-72
2024/01/27 03:40:03;;;;;;;16.98;9.65;;;;;;;-0.38;100.00;103349.75;5049856;28;20551;-72
2024/01/27 03:42:29;;;;;;;20.23;10.77;;;;;;;-0.43;100.00;103347.84;5043108;28;20096;-72
2024/01/27 03:44:54;;;;;;;24.00;10.73;;;;;;;-0.39;100.00;103357.56;5046593;28;20040;-72
2024/01/27 03:47:20;;;;;;;19.35;9.98;;;;;;;-0.42;100.00;103344.38;5046372;28;20032;-72
2024/01/27 03:49:45;;;;;;;20.80;10.18;;;;;;;-0.42;100.00;103347.00;5047876;28;20033;-72
2024/01/27 03:52:11;;;;;;;22.98;10.77;;;;;;;-0.39;100.00;103348.00;5038109;28;20475;-72
2024/01/27 03:54:38;;;;;;;20.65;9.85;;;;;;;-0.38;100.00;103348.88;5044849;28;20025;-72
2024/01/27 03:57:04;;;;;;;22.63;10.02;;;;;;;-0.42;100.00;103347.00;5049145;28;20074;-72
2024/01/27 03:59:29;;;;;;;19.65;9.90;;;;;;;-0.43;100.00;103345.22;5047197;28;20060;-72
2024/01/27 04:01:55;;;;;;;18.23;10.82;;;;;;;-0.49;100.00;103352.88;5034622;28;20025;-72
2024/01/27 04:04:21;;;;;;;19.98;10.80;;;;;;;-0.45;100.00;103355.63;5044797;28;20070;-71
2024/01/27 04:06:46;;;;;;;22.63;10.25;;;;;;;-0.59;100.00;103339.44;5042892;28;20025;-71
2024/01/27 04:09:11;;;;;;;19.92;10.05;;;;;;;-0.55;100.00;103362.25;5047270;28;20478;-72
2024/01/27 04:11:37;;;;;;;19.90;10.85;;;;;;;-0.51;100.00;103376.34;5041184;28;20526;-72
2024/01/27 04:14:04;;;;;;;23.88;10.10;;;;;;;-0.49;100.00;103371.19;5049571;28;20390;-72
2024/01/27 04:16:29;;;;;;;22.10;11.45;;;;;;;-0.57;100.00;103373.53;5046596;28;20017;-72
2024/01/27 04:18:55;;;;;;;22.88;10.93;;;;;;;-0.55;100.00;103367.50;5047701;28;20064;-71
2024/01/27 04:21:20;;;;;;;20.45;10.60;;;;;;;-0.55;100.00;103367.50;5046074;28;20032;-72
2024/01/27 04:23:46;;;;;;;21.92;10.57;;;;;;;-0.63;100.00;103348.00;5046388;28;20276;-72
2024/01/27 04:26:11;;;;;;;20.50;10.45;;;;;;;-0.57;100.00;103363.06;5027124;28;20121;-72
2024/01/27 04:28:37;;;;;;;22.90;11.63;;;;;;;-0.59;100.00;103359.47;5042030;28;20127;-72
2024/01/27 04:31:02;;;;;;;19.90;10.75;;;;;;;-0.53;100.00;103362.34;5043399;28;20040;-72
2024/01/27 04:33:28;;;;;;;18.45;10.23;;;;;;;-0.60;100.00;103352.47;5049540;28;20028;-72
2024/01/27 04:35:53;;;;;;;20.55;10.48;;;;;;;-0.55;100.00;103364.88;5046235;28;20033;-72
2024/01/27 04:38:18;;;;;;;17.45;10.88;;;;;;;-0.54;100.00;103366.69;5046478;28;20089;-72
2024/01/27 04:40:44;;;;;;;19.30;10.57;;;;;;;-0.60;100.00;103366.44;5042404;28;20029;-72
2024/01/27 04:43:09;;;;;;;21.75;11.75;;;;;;;-0.61;100.00;103364.66;5045035;28;20028;-72
2024/01/27 04:45:34;;;;;;;20.52;11.93;;;;;;;-0.59;100.00;103368.22;5048337;28;20648;-72
2024/01/27 04:48:00;;;;;;;25.90;11.25;;;;;;;-0.55;100.00;103362.25;5048233;28;20040;-71
2024/01/27 04:50:26;;;;;;;22.50;11.73;;;;;;;-0.54;100.00;103373.66;5045458;28;20449;-72
2024/01/27 04:52:52;;;;;;;22.17;11.00;;;;;;;-0.56;100.00;103356.97;5038511;28;20059;-71
2024/01/27 04:55:18;;;;;;;22.55;11.52;;;;;;;-0.50;100.00;103359.84;5043273;28;20021;-71
2024/01/27 04:57:43;;;;;;;20.17;11.15;;;;;;;-0.54;100.00;103368.41;5051085;28;20090;-71
2024/01/27 05:00:12;;;;;;;20.77;12.05;;;;;;;-0.58;100.00;103350.81;5028571;28;20021;-71
2024/01/27 05:02:40;;;;;;;20.58;12.00;;;;;;;-0.58;100.00;103377.88;5042890;28;20408;-71
2024/01/27 05:05:06;;;;;;;18.80;11.85;;;;;;;-0.55;100.00;103374.44;5026973;28;20032;-71
2024/01/27 05:07:32;;;;;;;22.60;12.10;;;;;;;-0.55;100.00;103369.22;5037178;28;20041;-71
2024/01/27 05:09:57;;;;;;;24.17;12.27;;;;;;;-0.56;100.00;103360.47;5042394;28;20045;-71
2024/01/27 05:12:22;;;;;;;20.08;12.07;;;;;;;-0.58;100.00;103362.16;5042070;28;20681;-71
2024/01/27 05:14:48;;;;;;;20.95;12.30;;;;;;;-0.57;100.00;103352.59;5055067;28;20107;-71
2024/01/27 05:17:13;;;;;;;21.40;12.25;;;;;;;-0.56;100.00;103370.06;5044058;28;20062;-71
2024/01/27 05:19:38;;;;;;;23.70;12.70;;;;;;;-0.61;100.00;103369.91;5050589;28;20506;-71
2024/01/27 05:22:03;;;;;;;22.65;12.80;;;;;;;-0.72;100.00;103347.69;5042106;28;20059;-71
2024/01/27 05:24:29;;;;;;;21.42;12.52;;;;;;;-0.69;100.00;103367.84;5044830;28;20079;-71
2024/01/27 05:26:54;;;;;;;20.55;12.45;;;;;;;-0.64;100.00;103371.50;5053330;28;20037;-71
2024/01/27 05:29:19;;;;;;;22.60;12.98;;;;;;;-0.71;100.00;103375.66;5041064;28;20060;-71
2024/01/27 05:31:45;;;;;;;26.60;13.43;;;;;;;-0.69;100.00;103366.13;5047812;28;20111;-72
2024/01/27 05:34:11;;;;;;;24.55;13.65;;;;;;;-0.69;100.00;103366.13;5046823;28;20027;-71
2024/01/27 05:36:36;;;;;;;22.77;13.00;;;;;;;-0.71;100.00;103365.19;5053618;28;20032;-71
2024/01/27 05:39:04;;;;;;;25.25;13.30;;;;;;;-0.70;100.00;103361.72;5042706;28;20040;-72
2024/01/27 05:41:30;;;;;;;23.33;12.90;;;;;;;-0.76;100.00;103351.91;5041729;28;20025;-71
2024/01/27 05:43:57;;;;;;;24.42;13.40;;;;;;;-0.78;100.00;103351.00;5046942;28;20032;-71
2024/01/27 05:46:24;;;;;;;21.95;13.60;;;;;;;-0.77;100.00;103352.75;5043919;28;20048;-71
2024/01/27 05:48:50;;;;;;;24.42;13.90;;;;;;;-0.76;100.00;103351.91;5052640;28;20025;-71
2024/01/27 05:51:16;;;;;;;27.45;14.40;;;;;;;-0.73;100.00;103347.66;5044191;28;20075;-71
2024/01/27 05:53:41;;;;;;;31.13;14.38;;;;;;;-0.82;100.00;103335.13;5035836;28;20458;-71
2024/01/27 05:56:06;;;;;;;24.98;14.60;;;;;;;-0.81;100.00;103343.03;5041579;28;20553;-71
2024/01/27 05:58:32;;;;;;;25.45;14.82;;;;;;;-0.90;100.00;103332.25;5046894;28;20286;-71
2024/01/27 06:00:57;;;;;;;27.77;14.93;;;;;;;-0.84;100.00;103336.78;5045422;28;20487;-72
2024/01/27 06:03:22;;;;;;;19.83;13.82;;;;;;;-0.89;100.00;103343.59;5046180;28;20025;-71
2024/01/27 06:05:48;;;;;;;27.65;14.82;;;;;;;-0.88;100.00;103355.81;5045635;28;20024;-71
2024/01/27 06:08:17;;;;;;;24.75;13.82;;;;;;;-0.88;100.00;103351.50;5045223;28;20667;-71
2024/01/27 06:10:43;;;;;;;27.10;15.18;;;;;;;-0.86;100.00;103346.31;5038593;28;21370;-71
2024/01/27 06:13:08;;;;;;;24.98;15.68;;;;;;;-0.89;100.00;103359.28;5039380;28;20120;-71
2024/01/27 06:15:33;;;;;;;29.75;15.52;;;;;;;-0.84;100.00;103355.97;5045198;28;20103;-71
2024/01/27 06:17:59;;;;;;;24.20;15.45;;;;;;;-0.93;100.00;103339.09;5045079;28;20249;-71
2024/01/27 06:20:24;;;;;;;26.23;14.65;;;;;;;-0.86;100.00;103354.16;5044270;28;20052;-71
2024/01/27 06:22:49;;;;;;;26.55;15.80;;;;;;;-0.88;100.00;103355.81;5044127;28;20025;-71
2024/01/27 06:25:16;;;;;;;29.40;15.77;;;;;;;-0.91;100.00;103355.72;5043809;28;20045;-71
2024/01/27 06:27:42;;;;;;;24.02;14.80;;;;;;;-0.92;100.00;103359.16;5045032;28;20021;-71
2024/01/27 06:30:08;;;;;;;23.65;15.13;;;;;;;-0.99;100.00;103367.63;5042489;28;20490;-70
2024/01/27 06:32:33;;;;;;;23.35;14.70;;;;;;;-1.09;100.00;103348.97;5044946;28;20078;-71
2024/01/27 06:34:58;;;;;;;29.55;15.73;;;;;;;-1.06;100.00;103364.78;5044904;28;20024;-71
2024/01/27 06:37:24;;;;;;;30.48;15.88;;;;;;;-1.07;100.00;103369.94;5045304;28;20074;-71
2024/01/27 06:39:49;;;;;;;23.08;15.02;;;;;;;-1.13;100.00;103354.94;5042954;28;20029;-71
2024/01/27 06:42:17;;;;;;;28.27;15.57;;;;;;;-1.08;100.00;103366.44;5043606;28;20027;-71
2024/01/27 06:44:43;;;;;;;25.17;15.55;;;;;;;-1.14;100.00;103360.97;5045570;28;20028;-71
2024/01/27 06:47:08;;;;;;;25.38;16.33;;;;;;;-1.10;100.00;103369.81;5044902;28;20482;-71
2024/01/27 06:49:33;;;;;;;28.23;15.80;;;;;;;-1.15;100.00;103366.16;5047912;28;20020;-70
2024/01/27 06:52:00;;;;;;;25.63;15.93;;;;;;;-1.15;100.00;103374.88;5037357;28;20031;-70
2024/01/27 06:54:25;;;;;;;25.08;16.08;;;;;;;-1.15;100.00;103372.28;5040973;28;20120;-70
2024/01/27 06:56:51;;;;;;;26.90;15.95;;;;;;;-1.21;100.00;103377.28;5043571;28;20546;-72
2024/01/27 06:59:16;;;;;;;31.58;16.08;;;;;;;-1.23;100.00;103384.16;5048421;28;20059;-71
2024/01/27 07:01:48;;;;;;;26.33;15.75;;;;;;;-1.18;100.00;103400.00;5043426;28;20108;-70
2024/01/27 07:04:17;;;;;;;28.45;16.42;;;;;;;-1.21;100.00;103387.75;5045308;28;20079;-71
2024/01/27 07:06:43;;;;;;;23.38;15.00;;;;;;;-1.21;100.00;103397.25;5026765;28;20029;-71
2024/01/27 07:09:11;;;;;;;29.48;17.05;;;;;;;-1.21;100.00;103386.81;5047994;28;20060;-71
2024/01/27 07:11:37;;;;;;;24.88;16.08;;;;;;;-1.22;100.00;103401.59;5045241;28;20063;-71
2024/01/27 07:14:03;;;;;;;31.13;16.33;;;;;;;-1.25;100.00;103396.28;5044813;28;20072;-72
2024/01/27 07:16:29;;;;;;;28.55;16.08;;;;;;;-1.20;100.00;103410.41;5043534;28;20502;-71
2024/01/27 07:18:54;;;;;;;27.70;16.48;;;;;;;-1.20;100.00;103413.03;5048277;28;20032;-70
2024/01/27 07:21:20;;;;;;;31.00;16.48;;;;;;;-1.16;100.00;103414.03;5040805;28;20635;-71
2024/01/27 07:23:45;;;;;;;28.63;16.05;;;;;;;-1.18;100.00;103407.84;5045447;28;20048;-72
2024/01/27 07:26:11;;;;;;;26.65;16.23;;;;;;;-1.14;100.00;103414.97;5031636;28;20065;-71
2024/01/27 07:28:38;;;;;;;26.10;16.33;;;;;;;-1.09;100.00;103419.53;5044331;28;20033;-71
2024/01/27 07:31:03;;;;;;;25.55;16.33;;;;;;;-1.07;100.00;103420.50;5045623;28;20067;-71
2024/01/27 07:33:29;;;;;;;29.60;16.02;;;;;;;-1.02;100.00;103412.84;5049239;28;20362;-72
2024/01/27 07:35:54;;;;;;;26.00;16.48;;;;;;;-0.98;100.00;103416.47;5053709;28;20044;-70
2024/01/27 07:38:20;;;;;;;29.15;16.45;;;;;;;-1.01;100.00;103422.44;5041336;28;20079;-71
2024/01/27 07:40:46;;;;;;;33.28;17.13;;;;;;;-1.04;100.00;103415.41;5047497;28;20033;-72
2024/01/27 07:43:11;;;;;;;26.05;16.58;;;;;;;-1.03;100.00;103419.78;5046887;28;20040;-71
2024/01/27 07:45:36;;;;;;;29.08;16.42;;;;;;;-0.99;100.00;103418.19;5044479;28;20372;-71
2024/01/27 07:48:02;;;;;;;24.75;15.88;;;;;;;-1.05;100.00;103408.38;5043665;28;20033;-72
2024/01/27 07:50:28;;;;;;;27.73;16.15;;;;;;;-0.99;100.00;103427.75;5050963;28;20456;-73
2024/01/27 07:52:53;;;;;;;26.88;15.98;;;;;;;-0.97;100.00;103426.06;5039989;28;20104;-73
2024/01/27 07:55:18;;;;;;;27.80;15.93;;;;;;;-0.98;100.00;103430.41;5055089;28;20248;-74
2024/01/27 07:57:44;;;;;;;28.58;17.17;;;;;;;-1.02;100.00;103418.06;5053572;28;20029;-73
2024/01/27 08:00:10;;;;;;;32.50;17.30;;;;;;;-0.94;100.00;103419.25;5060761;28;20059;-73
2024/01/27 08:02:35;;;;;;;30.95;17.50;;;;;;;-0.94;100.00;103426.19;5046597;28;20654;-72
2024/01/27 08:05:03;;;;;;;29.65;17.73;;;;;;;-0.95;100.00;103430.53;5045225;28;20032;-72
2024/01/27 08:07:29;;;;;;;33.00;17.17;;;;;;;-0.93;100.00;103430.59;5045340;28;20465;-72
2024/01/27 08:09:54;;;;;;;29.25;17.10;;;;;;;-0.89;100.00;103419.41;5041473;28;20290;-74
2024/01/27 08:12:19;;;;;;;29.80;17.25;;;;;;;-0.88;100.00;103414.25;5045194;28;20166;-73
2024/01/27 08:14:45;;;;;;;32.60;17.83;;;;;;;-0.89;100.00;103399.38;5036772;28;20077;-73
2024/01/27 08:17:10;;;;;;;28.90;17.45;;;;;;;-0.84;100.00;103396.94;5053672;28;20073;-74
2024/01/27 08:19:35;;;;;;;35.55;18.85;;;;;;;-0.84;100.00;103410.00;5051668;28;20029;-73
2024/01/27 08:22:01;;;;;;;26.75;17.52;;;;;;;-0.83;100.00;103409.19;5040455;28;20114;-73
2024/01/27 08:24:26;;;;;;;31.15;17.27;;;;;;;-0.85;100.00;103421.31;5040319;28;20200;-74
2024/01/27 08:26:51;;;;;;;31.42;18.00;;;;;;;-0.83;100.00;103417.94;5045243;28;20024;-74
2024/01/27 08:29:17;;;;;;;30.50;18.42;;;;;;;-0.81;100.00;103413.63;5050210;28;20048;-73
2024/01/27 08:31:43;;;;;;;26.55;17.17;;;;;;;-0.83;100.00;103406.59;5051357;28;20551;-73
2024/01/27 08:34:08;;;;;;;32.33;17.95;;;;;;;-0.81;100.00;103407.50;5052335;28;20033;-73
2024/01/27 08:36:34;;;;;;;33.83;18.58;;;;;;;-0.75;100.00;103402.53;5057982;28;20375;-73
2024/01/27 08:39:00;;;;;;;31.35;17.52;;;;;;;-0.72;100.00;103402.63;5045758;28;20166;-73
2024/01/27 08:41:26;;;;;;;32.65;19.30;;;;;;;-0.71;100.00;103395.66;5029744;28;20021;-73
2024/01/27 08:43:51;;;;;;;32.72;19.13;;;;;;;-0.74;100.00;103390.34;5038106;28;20515;-73
2024/01/27 08:46:22;;;;;;;30.75;19.90;;;;;;;-0.60;100.00;103404.78;5044360;28;20498;-75
2024/01/27 08:48:48;;;;;;;31.77;19.73;;;;;;;-0.53;100.00;103417.28;5054032;28;20036;-73
2024/01/27 08:51:15;;;;;;;30.95;19.38;;;;;;;-0.52;100.00;103409.47;5047118;28;20029;-75
2024/01/27 08:53:41;;;;;;;33.05;18.08;;;;;;;-0.46;100.00;103407.91;5041829;28;20056;-74
2024/01/27 08:56:06;;;;;;;31.27;18.30;;;;;;;-0.38;100.00;103422.16;5047590;28;20064;-74
2024/01/27 08:58:32;;;;;;;34.03;19.08;;;;;;;-0.34;100.00;103419.69;5048679;28;20025;-75
2024/01/27 09:00:57;;;;;;;35.38;19.13;;;;;;;-0.30;100.00;103431.16;5030774;28;20219;-75
2024/01/27 09:03:23;;;;;;;30.80;18.15;;;;;;;-0.32;100.00;103423.25;5047289;28;20456;-75
2024/01/27 09:05:48;;;;;;;31.45;20.63;;;;;;;-0.18;100.00;103435.94;5048804;28;20060;-74
2024/01/27 09:08:14;;;;;;;33.45;19.70;;;;;;;-0.18;100.00;103422.84;5051666;28;20394;-75
2024/01/27 09:10:40;;;;;;;30.83;18.60;;;;;;;-0.06;100.00;103425.91;5042378;28;20021;-75
2024/01/27 09:13:05;;;;;;;36.30;19.02;;;;;;;-0.05;100.00;103422.44;5044657;28;20382;-75
2024/01/27 09:15:31;;;;;;;32.70;18.67;;;;;;;0.00;100.00;103433.97;5047063;28;20105;-75
2024/01/27 09:17:56;;;;;;;34.20;18.83;;;;;;;0.06;100.00;103438.53;5037867;28;20040;-76
2024/01/27 09:20:22;;;;;;;31.23;17.52;;;;;;;0.10;100.00;103432.56;5042696;28;20602;-75
2024/01/27 09:22:49;;;;;;;33.15;19.23;;;;;;;0.22;100.00;103444.31;5043007;28;20033;-74
2024/01/27 09:25:15;;;;;;;33.83;18.63;;;;;;;0.27;100.00;103454.06;5045729;28;20122;-75
2024/01/27 09:27:41;;;;;;;30.00;17.90;;;;;;;0.31;100.00;103446.34;5039157;28;20025;-73
2024/01/27 09:30:07;;;;;;;33.13;17.92;;;;;;;0.38;100.00;103452.69;5044444;28;20068;-75
2024/01/27 09:32:32;;;;;;;27.08;16.83;;;;;;;0.43;100.00;103445.88;5020718;28;20503;-75
2024/01/27 09:34:58;;;;;;;32.75;17.15;;;;;;;0.51;100.00;103443.50;5046703;28;20063;-75
2024/01/27 09:37:23;;;;;;;33.67;18.20;;;;;;;0.65;100.00;103448.34;5046760;28;20053;-75
2024/01/27 09:39:48;;;;;;;31.30;17.17;;;;;;;0.68;100.00;103439.69;5042155;28;20108;-77
2024/01/27 09:42:17;;;;;;;29.80;16.33;;;;;;;0.87;100.00;103456.88;5042409;28;20290;-75
2024/01/27 09:44:44;;;;;;;29.23;15.85;;;;;;;1.06;100.00;103474.06;5044852;28;20111;-76
2024/01/27 09:47:10;;;;;;;25.88;15.38;;;;;;;1.08;100.00;103457.53;5043102;28;20052;-75
2024/01/27 09:49:39;;;;;;;30.50;16.75;;;;;;;1.24;100.00;103474.63;5040903;28;20025;-76
2024/01/27 09:52:05;;;;;;;34.10;16.17;;;;;;;1.30;100.00;103474.81;5021575;28;20040;-75
2024/01/27 09:54:30;;;;;;;25.77;14.70;;;;;;;1.34;100.00;103467.91;5039377;28;20028;-76
2024/01/27 09:56:58;;;;;;;26.52;15.15;;;;;;;1.32;100.00;103456.47;5046466;28;20087;-76
2024/01/27 09:59:25;;;;;;;26.48;14.40;;;;;;;1.35;100.00;103475.84;5047020;28;20226;-75
2024/01/27 10:01:52;;;;;;;28.95;14.43;;;;;;;1.40;100.00;103481.22;5040394;28;20422;-75
2024/01/27 10:04:22;;;;;;;28.38;14.68;;;;;;;1.41;100.00;103481.25;5043109;28;20071;-75
2024/01/27 10:06:50;;;;;;;28.15;15.25;;;;;;;1.39;100.00;103480.31;5041262;28;20044;-75
2024/01/27 10:09:16;;;;;;;25.83;14.18;;;;;;;1.51;100.00;103492.03;5049817;28;20033;-75
2024/01/27 10:11:50;;;;;;;26.05;14.65;;;;;;;1.57;100.00;103495.72;5042313;28;20025;-75
2024/01/27 10:14:16;;;;;;;26.40;14.65;;;;;;;1.58;100.00;103489.59;5025194;28;20032;-75
2024/01/27 10:16:45;;;;;;;30.83;14.35;;;;;;;1.63;100.00;103488.03;5046807;28;20028;-75
2024/01/27 10:19:19;;;;;;;25.75;14.23;;;;;;;1.65;100.00;103477.56;5041658;28;20367;-75
2024/01/27 10:21:48;;;;;;;30.08;15.80;;;;;;;1.75;100.00;103484.81;5025168;28;20082;-75
2024/01/27 10:24:14;;;;;;;27.63;14.48;;;;;;;1.81;100.00;103479.75;5051404;28;20041;-75
2024/01/27 10:26:39;;;;;;;30.50;13.85;;;;;;;1.85;100.00;103479.00;5042919;28;20506;-75
2024/01/27 10:29:05;;;;;;;24.27;12.98;;;;;;;1.88;100.00;103478.19;5044956;28;20049;-75
2024/01/27 10:31:33;;;;;;;25.35;13.82;;;;;;;1.95;100.00;103477.50;5043472;28;20039;-75
2024/01/27 10:33:59;;;;;;;26.15;13.55;;;;;;;2.00;100.00;103468.88;5043268;28;20024;-74
2024/01/27 10:36:28;;;;;;;27.02;14.52;;;;;;;2.04;100.00;103461.09;5044421;28;20478;-75
2024/01/27 10:38:53;;;;;;;31.83;14.45;;;;;;;2.11;100.00;103479.69;5044968;28;20111;-75
2024/01/27 10:41:24;;;;;;;30.45;14.52;;;;;;;2.17;100.00;103490.38;5046064;28;20112;-75
2024/01/27 10:43:53;;;;;;;32.83;15.07;;;;;;;2.24;100.00;103494.91;5049482;28;20884;-75
2024/01/27 10:46:22;;;;;;;30.25;13.85;;;;;;;2.24;100.00;103488.78;5052988;28;20020;-75
2024/01/27 10:48:54;;;;;;;26.52;13.55;;;;;;;2.30;100.00;103488.97;5046530;28;20025;-74
2024/01/27 10:51:32;;;;;;;27.08;13.48;;;;;;;2.38;100.00;103486.50;5047688;28;20367;-75
2024/01/27 10:54:01;;;;;;;25.80;13.40;;;;;;;2.41;100.00;103479.59;5025721;28;20870;-74
2024/01/27 10:56:27;;;;;;;27.02;13.52;;;;;;;2.46;100.00;103472.69;5045902;28;20034;-75
2024/01/27 10:58:54;;;;;;;25.13;12.90;;;;;;;2.57;100.00;103478.22;5044992;28;20029;-72
2024/01/27 11:01:22;;;;;;;26.73;13.32;;;;;;;2.60;100.00;103478.31;5044800;28;20039;-73